»·PEaware :: UAL990 KSAN-KSFO

UAL990 :: KSAN-KSFO

FLIGHT INFORMATION

Flight Status: Arrived
Operator:
United Airlines
More flights by this operator :: More flights under this callsign
Pilot: Brett P. (26886)
Aircraft: AIRBUS A321
(A321)
More flights by this aircraft type
Origin: KSAN San Diego Intl-Lindbergh
United States
Destination: KSFO San Francisco Intl
United States
More flights between these airports :: More routes between these airports
Route: PADRZ2 IKAYE RIZIN DCT SPLNT STOKD SERFR SERFR4
File this flight plan on PilotEdge
Remarks:
Altitude:
(Current/Filed)
34,000ft
Speed:
(Current/Filed)
450kts
Departed: 19-Apr-20 05:40 PM
Arrived: 19-Apr-20 06:47 PM
Distance/Time
Traveled:
388nm/1:07
Distance/Time
To Go:
Arrived

Flight Plot

Page will automatically refresh every two minutes.

Flight plan parsing failed; only flown route is shown


Map Options




Map Legend


Flown Route
Filed Route
Departure Airport
Arrival Airport
Navaid (VOR, NDB)
Fix

Horizontal Profiles

Position Reports

Time Latitude Longitude Heading Altitude Ground
Speed
19-Apr-20 17:07 32.733157 -117.195646 226 21ft 0kts
19-Apr-20 17:08 32.733157 -117.195646 226 21ft 0kts
19-Apr-20 17:09 32.733157 -117.195646 226 21ft 0kts
19-Apr-20 17:10 32.733157 -117.195646 226 21ft 0kts
19-Apr-20 17:11 32.733157 -117.195646 226 21ft 0kts
19-Apr-20 17:12 32.733157 -117.195646 226 21ft 0kts
19-Apr-20 17:13 32.733157 -117.195646 226 21ft 0kts
19-Apr-20 17:14 32.733157 -117.195646 226 21ft 0kts
19-Apr-20 17:15 32.733157 -117.195646 226 21ft 0kts
19-Apr-20 17:16 32.733157 -117.195646 226 21ft 0kts
19-Apr-20 17:17 32.733157 -117.195646 226 21ft 0kts
19-Apr-20 17:18 32.733157 -117.195646 226 21ft 0kts
19-Apr-20 17:19 32.733157 -117.195646 226 21ft 0kts
19-Apr-20 17:20 32.733157 -117.195646 226 21ft 0kts
19-Apr-20 17:21 32.733157 -117.195646 226 21ft 0kts
19-Apr-20 17:22 32.733157 -117.195646 226 21ft 0kts
19-Apr-20 17:23 32.733157 -117.195646 226 21ft 0kts
19-Apr-20 17:24 32.733157 -117.195646 226 21ft 0kts
19-Apr-20 17:25 32.733157 -117.195646 226 21ft 0kts
19-Apr-20 17:26 32.733157 -117.195646 226 21ft 0kts
19-Apr-20 17:27 32.733157 -117.195646 226 21ft 0kts
19-Apr-20 17:28 32.733157 -117.195646 226 21ft 0kts
19-Apr-20 17:29 32.733666 -117.195469 164 21ft 2kts
19-Apr-20 17:30 32.734052 -117.195967 102 20ft 2kts
19-Apr-20 17:31 32.734076 -117.196085 106 20ft 0kts
19-Apr-20 17:32 32.734076 -117.196085 106 20ft 0kts
19-Apr-20 17:33 32.734025 -117.195874 106 20ft 7kts
19-Apr-20 17:34 32.732693 -117.190348 105 21ft 19kts
19-Apr-20 17:35 32.731000 -117.183376 106 19ft 24kts
19-Apr-20 17:36 32.729512 -117.177144 95 23ft 0kts
19-Apr-20 17:37 32.729511 -117.177144 95 23ft 0kts
19-Apr-20 17:38 32.729951 -117.175967 3 25ft 9kts
19-Apr-20 17:39 32.737485 -117.204610 287 513ft 174kts
19-Apr-20 17:40 32.762811 -117.253543 301 3031ft 194kts
19-Apr-20 17:41 32.799045 -117.316768 304 4917ft 260kts
19-Apr-20 17:42 32.844078 -117.386574 306 8023ft 274kts
19-Apr-20 17:43 32.891362 -117.459897 305 10612ft 296kts
19-Apr-20 17:44 32.946726 -117.546047 305 12318ft 346kts
19-Apr-20 17:46 33.005770 -117.638133 304 14855ft 354kts
19-Apr-20 17:47 33.066930 -117.729714 309 14973ft 355kts
19-Apr-20 17:48 33.141582 -117.808030 315 16303ft 365kts
19-Apr-20 17:49 33.218079 -117.889539 310 18591ft 371kts
19-Apr-20 17:50 33.292068 -117.977816 309 20497ft 382kts
19-Apr-20 17:51 33.368315 -118.069053 309 22171ft 393kts
19-Apr-20 17:52 33.446727 -118.163043 308 23744ft 403kts
19-Apr-20 17:53 33.526796 -118.259302 308 25157ft 413kts
19-Apr-20 17:54 33.608571 -118.357894 308 26441ft 421kts
19-Apr-20 17:55 33.691904 -118.458658 307 27605ft 430kts
19-Apr-20 17:56 33.777023 -118.561890 307 28649ft 437kts
19-Apr-20 17:57 33.862311 -118.665688 307 29539ft 444kts
19-Apr-20 17:58 33.949473 -118.772397 306 30375ft 451kts
19-Apr-20 17:59 34.036785 -118.879278 307 31595ft 445kts
19-Apr-20 18:00 34.122243 -118.986052 303 32493ft 441kts
19-Apr-20 18:01 34.192839 -119.104896 294 33302ft 431kts
19-Apr-20 18:02 34.255752 -119.227455 294 34045ft 429kts
19-Apr-20 18:03 34.318740 -119.350448 294 34073ft 430kts
19-Apr-20 18:03 34.370625 -119.452043 294 34070ft 432kts
19-Apr-20 18:05 34.447426 -119.575701 305 34062ft 445kts
19-Apr-20 18:06 34.534591 -119.683508 306 34057ft 446kts
19-Apr-20 18:06 34.606696 -119.772625 306 34057ft 447kts
19-Apr-20 18:07 34.693935 -119.880630 306 34059ft 448kts
19-Apr-20 18:09 34.795226 -120.006416 306 34074ft 446kts
19-Apr-20 18:09 34.867849 -120.096932 306 34081ft 448kts
19-Apr-20 18:10 34.955114 -120.205971 307 34093ft 448kts
19-Apr-20 18:11 35.041910 -120.314791 307 34097ft 447kts
19-Apr-20 18:12 35.129310 -120.419036 310 34095ft 451kts
19-Apr-20 18:13 35.221846 -120.521988 310 34098ft 450kts
19-Apr-20 18:14 35.314493 -120.626163 310 34093ft 451kts
19-Apr-20 18:15 35.406704 -120.730657 310 34089ft 451kts
19-Apr-20 18:16 35.500967 -120.833790 315 34074ft 455kts
19-Apr-20 18:17 35.601988 -120.927654 316 34066ft 458kts
19-Apr-20 18:18 35.703304 -121.021754 316 33310ft 451kts
19-Apr-20 18:19 35.802746 -121.114627 316 32312ft 448kts
19-Apr-20 18:20 35.901900 -121.207576 317 31317ft 449kts
19-Apr-20 18:21 36.001453 -121.301160 317 30320ft 451kts
19-Apr-20 18:22 36.101839 -121.390657 323 28763ft 455kts
19-Apr-20 18:23 36.206823 -121.471767 323 26250ft 430kts
19-Apr-20 18:24 36.304606 -121.548269 324 22321ft 398kts
19-Apr-20 18:25 36.393579 -121.618224 324 20161ft 371kts
19-Apr-20 18:26 36.478988 -121.685768 323 20110ft 363kts
19-Apr-20 18:27 36.564120 -121.753063 323 19696ft 364kts
19-Apr-20 18:28 36.648046 -121.819543 324 17923ft 351kts
19-Apr-20 18:29 36.729412 -121.883291 329 16243ft 343kts
19-Apr-20 18:30 36.821081 -121.916439 344 14202ft 349kts
19-Apr-20 18:31 36.916036 -121.942638 345 11863ft 347kts
19-Apr-20 18:32 37.000382 -121.971475 340 10836ft 281kts
19-Apr-20 18:33 37.073700 -122.000202 340 10933ft 277kts
19-Apr-20 18:34 37.144789 -122.027940 340 10414ft 270kts
19-Apr-20 18:35 37.216395 -122.055995 341 9068ft 268kts
19-Apr-20 18:36 37.287059 -122.083699 341 7793ft 259kts
19-Apr-20 18:37 37.355259 -122.110584 341 6264ft 245kts
19-Apr-20 18:38 37.415786 -122.132366 343 4860ft 214kts
19-Apr-20 18:39 37.468875 -122.150350 343 3686ft 179kts
19-Apr-20 18:40 37.514741 -122.165491 342 3181ft 169kts
19-Apr-20 18:41 37.547958 -122.199946 295 2585ft 158kts
19-Apr-20 18:42 37.566554 -122.244558 295 1957ft 141kts
19-Apr-20 18:43 37.584527 -122.287845 294 1279ft 137kts
19-Apr-20 18:44 37.601611 -122.328889 295 536ft 131kts
19-Apr-20 18:45 37.618027 -122.368044 296 13ft 91kts
19-Apr-20 18:46 37.622235 -122.380765 277 31ft 3kts

Navigation Log

Ident Type
Flight plan parsing failed, navigation log unavailable